createdAt,value
2023-03-10T00:02:36.571Z,96023.41
2023-03-10T00:05:40.447Z,96020.00
2023-03-10T00:08:46.831Z,96020.69
2023-03-10T00:11:50.535Z,96018.78
2023-03-10T00:14:54.845Z,96026.25
2023-03-10T00:18:01.421Z,96029.47
2023-03-10T00:21:05.705Z,96023.66
2023-03-10T00:24:09.585Z,96026.56
2023-03-10T00:27:13.490Z,96024.22
2023-03-10T00:30:17.697Z,96021.53
2023-03-10T00:33:21.694Z,96016.34
2023-03-10T00:36:28.233Z,96024.66
2023-03-10T00:39:32.258Z,96025.28
2023-03-10T00:42:36.149Z,96022.38
2023-03-10T00:45:40.116Z,96022.56
2023-03-10T00:48:44.146Z,96017.19
2023-03-10T00:51:47.983Z,96023.75
2023-03-10T00:54:52.316Z,96025.91
2023-03-10T00:57:56.136Z,96029.25
2023-03-10T01:00:59.995Z,96018.63
2023-03-10T01:04:04.352Z,96021.75
2023-03-10T01:07:08.390Z,96031.06
2023-03-10T01:10:12.553Z,96023.63
2023-03-10T01:13:16.617Z,96030.66
2023-03-10T01:16:20.968Z,96025.41
2023-03-10T01:19:25.290Z,96016.63
2023-03-10T01:22:30.288Z,96026.78
2023-03-10T01:25:33.854Z,96024.66
2023-03-10T01:28:37.934Z,96018.41
2023-03-10T01:31:42.224Z,96020.03
2023-03-10T01:34:46.389Z,96015.50
2023-03-10T01:41:11.993Z,96014.00
2023-03-10T01:44:16.054Z,96022.34
2023-03-10T01:47:20.136Z,96013.47
2023-03-10T01:50:24.246Z,96004.16
2023-03-10T01:56:50.012Z,95999.50
2023-03-10T01:59:54.042Z,96001.84
2023-03-10T02:02:58.298Z,96002.66
2023-03-10T02:06:02.795Z,96007.00
2023-03-10T02:09:07.894Z,96000.56
2023-03-10T02:12:12.092Z,95985.09
2023-03-10T02:15:16.006Z,95973.53
2023-03-10T02:18:19.943Z,95967.47
2023-03-10T02:21:23.817Z,95959.50
2023-03-10T02:24:27.602Z,95953.06
2023-03-10T02:27:31.720Z,95949.91
2023-03-10T02:30:35.685Z,95927.25
2023-03-10T02:33:39.745Z,95906.59
2023-03-10T02:36:43.757Z,95883.25
2023-03-10T02:39:51.768Z,95888.16
2023-03-10T02:42:56.988Z,95876.25
2023-03-10T02:46:01.102Z,95867.75
2023-03-10T02:49:05.444Z,95857.06
2023-03-10T02:52:11.311Z,95848.63
2023-03-10T02:55:15.681Z,95855.94
2023-03-10T02:58:21.032Z,95865.47
2023-03-10T03:01:25.297Z,95855.53
2023-03-10T03:04:32.359Z,95851.59
2023-03-10T03:07:36.305Z,95833.53
2023-03-10T03:10:40.540Z,95830.78
2023-03-10T03:13:44.473Z,95819.03
2023-03-10T03:16:48.334Z,95825.59
2023-03-10T03:19:52.153Z,95823.09
2023-03-10T03:22:56.514Z,95830.41
2023-03-10T03:26:00.714Z,95822.34
2023-03-10T03:29:05.115Z,95826.34
2023-03-10T03:32:09.086Z,95808.59
2023-03-10T03:35:14.313Z,95799.63
2023-03-10T03:38:18.697Z,95773.91
2023-03-10T03:41:22.664Z,95755.53
2023-03-10T03:44:26.530Z,95733.81
2023-03-10T03:47:30.762Z,95727.34
2023-03-10T03:50:34.809Z,95720.34
2023-03-10T03:53:40.149Z,95708.16
2023-03-10T03:59:50.439Z,95684.50
2023-03-10T04:02:55.285Z,95676.38
2023-03-10T04:05:59.303Z,95660.38
2023-03-10T04:09:03.315Z,95673.06
2023-03-10T04:12:07.450Z,95660.91
2023-03-10T04:15:11.774Z,95649.41
2023-03-10T04:18:15.569Z,95654.91
2023-03-10T04:21:19.175Z,95650.41
2023-03-10T04:24:23.428Z,95673.16
2023-03-10T04:27:27.574Z,95674.34
2023-03-10T04:30:31.534Z,95650.69
2023-03-10T04:33:35.285Z,95596.72
2023-03-10T04:36:39.372Z,95579.34
2023-03-10T04:39:43.342Z,95571.28
2023-03-10T04:42:47.803Z,95590.88
2023-03-10T04:45:52.064Z,95574.31
2023-03-10T04:48:58.570Z,95540.63
2023-03-10T04:52:06.435Z,95546.78
2023-03-10T04:55:10.458Z,95534.50
2023-03-10T04:58:14.364Z,95575.31
2023-03-10T05:01:18.874Z,95624.16
2023-03-10T05:04:23.500Z,95643.13
2023-03-10T05:07:27.220Z,95631.19
2023-03-10T05:10:31.368Z,95639.91
2023-03-10T05:13:35.386Z,95640.31
2023-03-10T05:16:39.697Z,95660.81
2023-03-10T05:19:43.713Z,95633.16
2023-03-10T05:22:47.596Z,95644.16
2023-03-10T05:25:51.737Z,95631.19
2023-03-10T05:28:55.795Z,95613.25
2023-03-10T05:31:59.776Z,95609.25
2023-03-10T05:35:03.917Z,95604.25
2023-03-10T05:38:07.756Z,95598.59
2023-03-10T05:41:11.699Z,95595.50
2023-03-10T05:44:15.989Z,95602.44
2023-03-10T05:47:20.242Z,95623.59
2023-03-10T05:50:24.197Z,95650.91
2023-03-10T05:53:28.624Z,95666.63
2023-03-10T05:56:32.589Z,95661.75
2023-03-10T05:59:36.923Z,95655.59
2023-03-10T06:02:42.383Z,95663.44
2023-03-10T06:05:46.235Z,95666.59
2023-03-10T06:08:50.175Z,95669.25
2023-03-10T06:11:54.304Z,95668.13
2023-03-10T06:14:58.553Z,95685.25
2023-03-10T06:18:02.454Z,95695.28
2023-03-10T06:21:06.224Z,95706.88
2023-03-10T06:24:11.236Z,95703.97
2023-03-10T06:27:17.811Z,95692.91
2023-03-10T06:30:29.428Z,95697.38
2023-03-10T06:33:42.593Z,95704.34
2023-03-10T06:36:48.528Z,95711.03
2023-03-10T06:39:52.355Z,95739.75
2023-03-10T06:42:56.355Z,95744.78
2023-03-10T06:46:00.494Z,95743.81
2023-03-10T06:49:04.680Z,95744.78
2023-03-10T06:52:08.463Z,95761.06
2023-03-10T06:55:12.254Z,95757.63
2023-03-10T06:58:16.727Z,95746.78
2023-03-10T07:01:20.704Z,95751.88
2023-03-10T07:04:24.884Z,95756.63
2023-03-10T07:07:28.922Z,95754.59
2023-03-10T07:10:34.523Z,95751.03
2023-03-10T07:13:53.189Z,95769.38
2023-03-10T07:16:57.560Z,95777.50
2023-03-10T07:20:01.638Z,95774.16
2023-03-10T07:23:05.381Z,95792.44
2023-03-10T07:26:09.470Z,95778.97
2023-03-10T07:29:13.456Z,95785.16
2023-03-10T07:32:17.347Z,95795.66
2023-03-10T07:35:21.118Z,95780.09
2023-03-10T07:38:25.491Z,95794.81
2023-03-10T07:41:32.136Z,95789.97
2023-03-10T07:44:36.430Z,95792.22
2023-03-10T07:47:42.353Z,95795.28
2023-03-10T07:50:49.147Z,95811.06
2023-03-10T07:53:52.996Z,95814.75
2023-03-10T07:56:57.066Z,95808.88
2023-03-10T08:00:00.955Z,95839.09
2023-03-10T08:03:05.488Z,95874.22
2023-03-10T08:06:09.712Z,95890.34
2023-03-10T08:09:13.508Z,95865.91
2023-03-10T08:12:17.560Z,95861.09
2023-03-10T08:15:22.779Z,95867.34
2023-03-10T08:18:26.721Z,95871.59
2023-03-10T08:21:30.819Z,95873.94
2023-03-10T08:24:35.954Z,95875.47
2023-03-10T08:27:40.134Z,95883.56
2023-03-10T08:31:02.639Z,95877.25
2023-03-10T08:34:07.797Z,95883.22
2023-03-10T08:37:13.323Z,95896.06
2023-03-10T08:40:17.644Z,95891.53
2023-03-10T08:43:21.915Z,95911.66
2023-03-10T08:46:25.819Z,95926.81
2023-03-10T08:49:29.692Z,95936.63
2023-03-10T08:52:33.719Z,95962.50
2023-03-10T08:55:37.863Z,95967.00
2023-03-10T08:58:47.995Z,95980.16
2023-03-10T09:01:52.040Z,95983.72
2023-03-10T09:04:55.971Z,95981.91
2023-03-10T09:07:59.809Z,95982.44
2023-03-10T09:11:03.865Z,95983.53
2023-03-10T09:14:07.742Z,95973.84
2023-03-10T09:17:12.137Z,95976.44
2023-03-10T09:20:15.989Z,95980.66
2023-03-10T09:23:20.574Z,95984.63
2023-03-10T09:32:51.183Z,95994.84
2023-03-10T09:36:06.306Z,96000.09
2023-03-10T09:39:11.053Z,96007.75
2023-03-10T09:42:18.913Z,96006.97
2023-03-10T09:45:25.964Z,96019.91
2023-03-10T09:48:30.212Z,96028.31
2023-03-10T09:51:34.121Z,96028.84
2023-03-10T09:54:37.839Z,96031.47
2023-03-10T09:57:42.483Z,96045.91
2023-03-10T10:00:46.595Z,96043.19
2023-03-10T10:03:53.402Z,96054.72
2023-03-10T10:06:57.525Z,96056.25
2023-03-10T10:10:01.614Z,96065.44
2023-03-10T10:13:05.737Z,96059.41
2023-03-10T10:16:31.864Z,96068.31
2023-03-10T10:19:36.667Z,96071.91
2023-03-10T10:22:41.143Z,96075.91
2023-03-10T10:25:45.416Z,96066.78
2023-03-10T10:28:50.894Z,96081.38
2023-03-10T10:31:55.305Z,96070.59
2023-03-10T10:35:01.003Z,96082.63
2023-03-10T10:38:05.274Z,96077.06
2023-03-10T10:41:09.230Z,96078.31
2023-03-10T10:44:13.428Z,96078.78
2023-03-10T10:47:17.466Z,96091.78
2023-03-10T10:50:21.228Z,96084.25
2023-03-10T10:53:25.686Z,96090.31
2023-03-10T10:56:29.756Z,96093.81
2023-03-10T10:59:34.122Z,96095.63
2023-03-10T11:02:38.562Z,96105.66
2023-03-10T11:05:43.077Z,96115.13
2023-03-10T11:08:50.354Z,96116.75
2023-03-10T11:11:55.317Z,96139.97
2023-03-10T11:15:00.864Z,96151.28
2023-03-10T11:18:05.010Z,96150.13
2023-03-10T11:21:08.769Z,96163.09
2023-03-10T11:24:12.886Z,96170.69
2023-03-10T11:27:16.672Z,96165.34
2023-03-10T11:30:23.883Z,96168.75
2023-03-10T11:33:29.371Z,96171.91
2023-03-10T11:36:35.065Z,96182.25
2023-03-10T11:39:40.723Z,96172.19
2023-03-10T11:42:44.597Z,96181.28
2023-03-10T11:45:48.993Z,96184.22
2023-03-10T11:48:52.632Z,96178.47
2023-03-10T11:51:56.459Z,96184.59
2023-03-10T11:55:00.473Z,96193.06
2023-03-10T11:58:04.871Z,96220.38
2023-03-10T12:01:08.787Z,96213.41
2023-03-10T12:04:14.799Z,96225.47
2023-03-10T12:07:19.368Z,96239.44
2023-03-10T12:10:25.097Z,96243.31
2023-03-10T12:13:38.084Z,96251.47
2023-03-10T12:16:42.341Z,96253.25
2023-03-10T12:19:46.601Z,96247.50
2023-03-10T12:22:50.537Z,96255.97
2023-03-10T12:25:54.582Z,96250.53
2023-03-10T12:28:59.083Z,96257.28
2023-03-10T12:32:03.187Z,96259.84
2023-03-10T12:35:10.097Z,96257.91
2023-03-10T12:38:16.620Z,96264.81
2023-03-10T12:41:20.514Z,96274.34
2023-03-10T12:44:24.554Z,96276.47
2023-03-10T12:47:28.567Z,96269.72
2023-03-10T12:50:33.008Z,96262.31
2023-03-10T12:53:37.067Z,96277.81
2023-03-10T12:56:44.072Z,96288.63
2023-03-10T12:59:49.316Z,96299.72
2023-03-10T13:02:53.455Z,96296.19
2023-03-10T13:05:57.373Z,96289.72
2023-03-10T13:09:01.469Z,96305.13
2023-03-10T13:12:05.397Z,96291.50
2023-03-10T13:15:09.229Z,96309.81
2023-03-10T13:18:14.246Z,96303.34
2023-03-10T13:21:18.572Z,96316.47
2023-03-10T13:24:25.735Z,96331.03
2023-03-10T13:27:30.200Z,96341.56
2023-03-10T13:30:34.335Z,96348.00
2023-03-10T13:33:50.166Z,96349.59
2023-03-10T13:36:56.190Z,96352.53
2023-03-10T13:40:00.109Z,96342.69
2023-03-10T13:43:04.121Z,96342.00
2023-03-10T13:46:08.005Z,96330.44
2023-03-10T13:49:11.877Z,96342.97
2023-03-10T13:52:16.173Z,96350.59
2023-03-10T13:55:20.576Z,96347.41
2023-03-10T13:58:26.399Z,96357.78
2023-03-10T14:01:30.407Z,96358.88
2023-03-10T14:04:34.215Z,96367.84
2023-03-10T14:07:38.231Z,96372.88
2023-03-10T14:10:42.309Z,96368.66
2023-03-10T14:13:46.163Z,96369.16
2023-03-10T14:16:49.962Z,96349.03
2023-03-10T14:19:54.245Z,96355.06
2023-03-10T14:22:58.302Z,96359.81
2023-03-10T14:26:02.267Z,96367.56
2023-03-10T14:29:06.175Z,96373.63
2023-03-10T14:32:10.665Z,96371.47
2023-03-10T14:35:14.444Z,96368.03
2023-03-10T14:38:18.360Z,96369.63
2023-03-10T14:41:22.128Z,96373.31
2023-03-10T14:44:26.027Z,96385.78
2023-03-10T14:47:30.169Z,96381.56
2023-03-10T14:50:42.205Z,96370.25
2023-03-10T14:53:49.640Z,96372.63
2023-03-10T14:56:54.157Z,96365.16
2023-03-10T14:59:58.186Z,96372.59
2023-03-10T15:03:02.146Z,96360.19
2023-03-10T15:06:06.257Z,96352.84
2023-03-10T15:09:10.216Z,96357.03
2023-03-10T15:12:14.169Z,96337.78
2023-03-10T15:15:20.133Z,96344.94
2023-03-10T15:18:24.361Z,96351.50
2023-03-10T15:21:28.586Z,96358.13
2023-03-10T15:24:32.578Z,96352.00
2023-03-10T15:27:36.595Z,96357.84
2023-03-10T15:30:41.003Z,96358.84
2023-03-10T15:33:44.765Z,96348.84
2023-03-10T15:36:48.693Z,96360.72
2023-03-10T15:39:52.967Z,96351.47
2023-03-10T15:42:56.753Z,96379.94
2023-03-10T15:46:00.939Z,96373.59
2023-03-10T15:49:04.991Z,96387.56
2023-03-10T15:52:10.599Z,96395.44
2023-03-10T15:55:14.815Z,96419.38
2023-03-10T15:58:19.885Z,96431.00
2023-03-10T16:01:23.891Z,96419.19
2023-03-10T16:04:27.968Z,96440.53
2023-03-10T16:07:36.470Z,96455.72
2023-03-10T16:10:40.754Z,96458.91
2023-03-10T16:13:44.396Z,96458.09
2023-03-10T16:16:51.002Z,96443.38
2023-03-10T16:19:55.176Z,96451.53
2023-03-10T16:22:59.108Z,96447.31
2023-03-10T16:26:03.181Z,96442.66
2023-03-10T16:29:06.943Z,96453.81
2023-03-10T16:32:10.834Z,96466.22
2023-03-10T16:35:17.448Z,96464.84
2023-03-10T16:38:21.572Z,96476.84
2023-03-10T16:41:26.423Z,96485.16
2023-03-10T16:44:31.751Z,96495.63
2023-03-10T16:47:35.623Z,96497.47
2023-03-10T16:50:39.562Z,96485.84
2023-03-10T16:53:43.770Z,96471.50
2023-03-10T16:56:50.600Z,96478.09
2023-03-10T16:59:54.499Z,96484.81
2023-03-10T17:02:58.622Z,96489.25
2023-03-10T17:06:02.757Z,96474.47
2023-03-10T17:09:06.983Z,96483.88
2023-03-10T17:12:11.227Z,96476.28
2023-03-10T17:15:20.951Z,96491.16
2023-03-10T17:18:25.126Z,96516.53
2023-03-10T17:21:28.952Z,96519.81
2023-03-10T17:24:33.511Z,96519.25
2023-03-10T17:27:37.603Z,96504.50
2023-03-10T17:30:41.786Z,96522.28
2023-03-10T17:33:46.100Z,96532.94
2023-03-10T17:36:50.205Z,96549.22
2023-03-10T17:39:54.382Z,96553.44
2023-03-10T17:43:12.936Z,96549.88
2023-03-10T17:46:22.904Z,96536.75
2023-03-10T17:49:29.763Z,96532.59
2023-03-10T17:52:33.757Z,96544.41
2023-03-10T17:55:37.657Z,96535.59
2023-03-10T17:58:43.967Z,96527.44
2023-03-10T18:01:47.921Z,96541.97
2023-03-10T18:04:52.251Z,96550.44
2023-03-10T18:07:56.062Z,96568.78
2023-03-10T18:11:00.462Z,96572.78
2023-03-10T18:14:04.332Z,96581.66
2023-03-10T18:17:10.606Z,96575.16
2023-03-10T18:20:16.020Z,96580.59
2023-03-10T18:23:20.502Z,96578.09
2023-03-10T18:26:24.667Z,96595.06
2023-03-10T18:29:29.709Z,96611.97
2023-03-10T18:32:34.111Z,96595.09
2023-03-10T18:35:40.764Z,96584.72
2023-03-10T18:38:45.040Z,96591.28
2023-03-10T18:41:49.757Z,96583.56
2023-03-10T18:44:55.450Z,96613.03
2023-03-10T18:47:59.533Z,96610.28
2023-03-10T18:51:03.524Z,96593.81
2023-03-10T18:54:07.313Z,96606.06
2023-03-10T18:57:11.370Z,96624.38
2023-03-10T19:00:22.808Z,96627.50
2023-03-10T19:03:29.501Z,96630.97
2023-03-10T19:06:33.502Z,96639.88
2023-03-10T19:09:37.825Z,96644.59
2023-03-10T19:12:43.734Z,96641.19
2023-03-10T19:15:47.646Z,96654.38
2023-03-10T19:18:51.350Z,96667.03
2023-03-10T19:21:55.319Z,96673.66
2023-03-10T19:25:00.416Z,96681.88
2023-03-10T19:28:04.610Z,96673.91
2023-03-10T19:31:08.534Z,96669.00
2023-03-10T19:34:16.310Z,96679.66
2023-03-10T19:37:20.002Z,96688.84
2023-03-10T19:40:24.270Z,96685.72
2023-03-10T19:43:28.900Z,96697.25
2023-03-10T19:46:32.928Z,96681.84
2023-03-10T19:49:37.315Z,96688.34
2023-03-10T19:52:41.827Z,96693.44
2023-03-10T19:55:46.149Z,96696.16
2023-03-10T19:58:49.956Z,96702.91
2023-03-10T20:01:53.824Z,96710.47
2023-03-10T20:04:57.759Z,96727.94
2023-03-10T20:08:01.752Z,96707.53
2023-03-10T20:11:05.834Z,96691.69
2023-03-10T20:14:09.807Z,96693.50
2023-03-10T20:17:14.046Z,96689.81
2023-03-10T20:20:18.334Z,96677.97
2023-03-10T20:23:22.718Z,96694.47
2023-03-10T20:26:26.559Z,96697.50
2023-03-10T20:29:30.719Z,96702.81
2023-03-10T20:32:35.351Z,96699.72
2023-03-10T20:35:41.492Z,96696.22
2023-03-10T20:38:45.728Z,96703.63
2023-03-10T20:41:49.669Z,96696.44
2023-03-10T20:44:53.798Z,96689.56
2023-03-10T20:47:57.775Z,96710.25
2023-03-10T20:51:01.632Z,96713.06
2023-03-10T20:54:05.792Z,96715.84
2023-03-10T20:57:09.984Z,96720.47
2023-03-10T21:00:13.942Z,96719.13
2023-03-10T21:03:17.923Z,96717.53
2023-03-10T21:06:21.856Z,96712.38
2023-03-10T21:09:29.118Z,96716.63
2023-03-10T21:12:33.274Z,96725.25
2023-03-10T21:15:37.415Z,96717.41
2023-03-10T21:18:41.053Z,96729.03
2023-03-10T21:21:44.846Z,96723.03
2023-03-10T21:24:49.074Z,96731.84
2023-03-10T21:27:53.497Z,96736.69
2023-03-10T21:30:57.739Z,96735.63
2023-03-10T21:34:01.844Z,96743.00
2023-03-10T21:37:06.334Z,96738.00
2023-03-10T21:40:10.402Z,96737.88
2023-03-10T21:43:14.463Z,96738.78
2023-03-10T21:46:18.434Z,96738.19
2023-03-10T21:49:22.802Z,96741.66
2023-03-10T21:52:29.464Z,96731.22
2023-03-10T21:55:33.388Z,96735.88
2023-03-10T21:58:37.511Z,96737.50
2023-03-10T22:01:42.145Z,96751.38
2023-03-10T22:04:46.151Z,96762.22
2023-03-10T22:07:50.464Z,96751.78
2023-03-10T22:10:54.537Z,96749.59
2023-03-10T22:13:58.502Z,96734.22
2023-03-10T22:17:02.423Z,96742.44
2023-03-10T22:20:06.521Z,96755.91
2023-03-10T22:23:11.050Z,96741.91
2023-03-10T22:26:15.378Z,96743.50
2023-03-10T22:29:19.482Z,96739.41
2023-03-10T22:32:26.510Z,96729.19
2023-03-10T22:35:30.343Z,96731.22
2023-03-10T22:38:34.278Z,96716.59
2023-03-10T22:41:38.940Z,96716.41
2023-03-10T22:44:43.217Z,96695.47
2023-03-10T22:47:47.561Z,96708.81
2023-03-10T22:50:51.804Z,96700.38
2023-03-10T22:53:55.441Z,96686.53
2023-03-10T22:56:59.730Z,96682.63
2023-03-10T23:00:03.710Z,96667.28
2023-03-10T23:03:07.784Z,96666.22
2023-03-10T23:06:11.630Z,96658.38
2023-03-10T23:09:15.627Z,96658.94
2023-03-10T23:12:20.015Z,96656.59
2023-03-10T23:15:25.801Z,96655.34
2023-03-10T23:18:29.911Z,96642.75
2023-03-10T23:21:33.960Z,96652.22
2023-03-10T23:24:38.024Z,96639.09
2023-03-10T23:27:42.491Z,96620.47
2023-03-10T23:30:46.628Z,96640.84
2023-03-10T23:33:52.005Z,96634.72
2023-03-10T23:36:55.693Z,96626.41
2023-03-10T23:39:59.908Z,96642.19
2023-03-10T23:43:05.054Z,96646.97
2023-03-10T23:46:09.404Z,96626.69
2023-03-10T23:49:13.098Z,96610.81
2023-03-10T23:52:17.109Z,96607.50
2023-03-10T23:55:21.258Z,96621.03
2023-03-10T23:58:25.338Z,96604.84
